sensor_id;sensor_type;location;lat;lon;timestamp;P1;durP1;ratioP1;P2;durP2;ratioP2
15567;SDS011;7885;42.596;23.044;2022-08-19T00:00:22;6.53;;;5.80;;
15567;SDS011;7885;42.596;23.044;2022-08-19T00:02:48;6.10;;;5.60;;
15567;SDS011;7885;42.596;23.044;2022-08-19T00:05:15;8.10;;;5.97;;
15567;SDS011;7885;42.596;23.044;2022-08-19T00:07:43;7.47;;;5.70;;
15567;SDS011;7885;42.596;23.044;2022-08-19T00:10:10;6.90;;;5.63;;
15567;SDS011;7885;42.596;23.044;2022-08-19T00:12:39;5.90;;;5.40;;
15567;SDS011;7885;42.596;23.044;2022-08-19T00:15:07;6.50;;;5.47;;
15567;SDS011;7885;42.596;23.044;2022-08-19T00:17:36;6.37;;;5.77;;
15567;SDS011;7885;42.596;23.044;2022-08-19T00:20:04;7.07;;;5.80;;
15567;SDS011;7885;42.596;23.044;2022-08-19T00:22:31;6.77;;;5.93;;
15567;SDS011;7885;42.596;23.044;2022-08-19T00:24:58;6.40;;;5.80;;
15567;SDS011;7885;42.596;23.044;2022-08-19T00:27:25;7.30;;;5.17;;
15567;SDS011;7885;42.596;23.044;2022-08-19T00:29:53;6.00;;;5.07;;
15567;SDS011;7885;42.596;23.044;2022-08-19T00:32:20;6.10;;;5.50;;
15567;SDS011;7885;42.596;23.044;2022-08-19T00:34:47;6.03;;;5.50;;
15567;SDS011;7885;42.596;23.044;2022-08-19T00:37:13;6.33;;;5.80;;
15567;SDS011;7885;42.596;23.044;2022-08-19T00:39:40;6.20;;;5.50;;
15567;SDS011;7885;42.596;23.044;2022-08-19T00:42:07;6.30;;;5.67;;
15567;SDS011;7885;42.596;23.044;2022-08-19T00:44:34;8.40;;;5.63;;
15567;SDS011;7885;42.596;23.044;2022-08-19T00:47:02;6.27;;;5.67;;
15567;SDS011;7885;42.596;23.044;2022-08-19T00:49:31;6.27;;;5.77;;
15567;SDS011;7885;42.596;23.044;2022-08-19T00:52:03;6.13;;;5.63;;
15567;SDS011;7885;42.596;23.044;2022-08-19T00:54:33;7.63;;;5.70;;
15567;SDS011;7885;42.596;23.044;2022-08-19T00:57:03;6.20;;;5.60;;
15567;SDS011;7885;42.596;23.044;2022-08-19T00:59:33;9.13;;;5.70;;
15567;SDS011;7885;42.596;23.044;2022-08-19T01:02:02;7.17;;;6.10;;
15567;SDS011;7885;42.596;23.044;2022-08-19T01:04:30;7.60;;;6.80;;
15567;SDS011;7885;42.596;23.044;2022-08-19T01:10:19;5.80;;;5.30;;
15567;SDS011;7885;42.596;23.044;2022-08-19T01:12:48;7.27;;;5.73;;
15567;SDS011;7885;42.596;23.044;2022-08-19T01:15:16;5.87;;;5.37;;
15567;SDS011;7885;42.596;23.044;2022-08-19T01:17:48;6.33;;;5.73;;
15567;SDS011;7885;42.596;23.044;2022-08-19T01:20:18;6.63;;;6.03;;
15567;SDS011;7885;42.596;23.044;2022-08-19T01:22:51;6.50;;;5.87;;
15567;SDS011;7885;42.596;23.044;2022-08-19T01:25:20;6.30;;;5.70;;
15567;SDS011;7885;42.596;23.044;2022-08-19T01:27:51;6.13;;;5.53;;
15567;SDS011;7885;42.596;23.044;2022-08-19T01:30:20;6.10;;;5.60;;
15567;SDS011;7885;42.596;23.044;2022-08-19T01:32:49;5.90;;;5.40;;
15567;SDS011;7885;42.596;23.044;2022-08-19T01:35:16;5.60;;;5.10;;
15567;SDS011;7885;42.596;23.044;2022-08-19T01:37:44;7.70;;;5.73;;
15567;SDS011;7885;42.596;23.044;2022-08-19T01:40:14;6.87;;;5.77;;
15567;SDS011;7885;42.596;23.044;2022-08-19T01:42:41;6.93;;;6.10;;
15567;SDS011;7885;42.596;23.044;2022-08-19T01:45:08;6.27;;;5.43;;
15567;SDS011;7885;42.596;23.044;2022-08-19T01:47:36;7.17;;;6.50;;
15567;SDS011;7885;42.596;23.044;2022-08-19T01:50:05;6.60;;;5.97;;
15567;SDS011;7885;42.596;23.044;2022-08-19T01:52:35;6.60;;;6.00;;
15567;SDS011;7885;42.596;23.044;2022-08-19T01:55:02;8.57;;;6.13;;
15567;SDS011;7885;42.596;23.044;2022-08-19T01:57:31;5.50;;;4.87;;
15567;SDS011;7885;42.596;23.044;2022-08-19T01:59:58;5.87;;;5.37;;
15567;SDS011;7885;42.596;23.044;2022-08-19T02:02:27;5.80;;;5.30;;
15567;SDS011;7885;42.596;23.044;2022-08-19T02:04:54;5.93;;;5.33;;
15567;SDS011;7885;42.596;23.044;2022-08-19T02:07:21;6.07;;;5.53;;
15567;SDS011;7885;42.596;23.044;2022-08-19T02:09:48;6.53;;;5.93;;
15567;SDS011;7885;42.596;23.044;2022-08-19T02:12:14;6.57;;;5.97;;
15567;SDS011;7885;42.596;23.044;2022-08-19T02:14:43;8.23;;;6.00;;
15567;SDS011;7885;42.596;23.044;2022-08-19T02:17:09;6.43;;;5.40;;
15567;SDS011;7885;42.596;23.044;2022-08-19T02:19:36;6.87;;;6.13;;
15567;SDS011;7885;42.596;23.044;2022-08-19T02:22:03;6.13;;;5.63;;
15567;SDS011;7885;42.596;23.044;2022-08-19T02:24:30;5.70;;;5.20;;
15567;SDS011;7885;42.596;23.044;2022-08-19T02:26:57;6.23;;;5.73;;
15567;SDS011;7885;42.596;23.044;2022-08-19T02:29:24;6.43;;;5.90;;
15567;SDS011;7885;42.596;23.044;2022-08-19T02:31:52;8.63;;;5.97;;
15567;SDS011;7885;42.596;23.044;2022-08-19T02:34:19;8.73;;;5.93;;
15567;SDS011;7885;42.596;23.044;2022-08-19T02:36:46;8.70;;;6.57;;
15567;SDS011;7885;42.596;23.044;2022-08-19T02:39:13;8.50;;;5.40;;
15567;SDS011;7885;42.596;23.044;2022-08-19T02:41:39;6.13;;;5.60;;
15567;SDS011;7885;42.596;23.044;2022-08-19T02:44:05;7.33;;;6.43;;
15567;SDS011;7885;42.596;23.044;2022-08-19T02:46:32;7.80;;;7.10;;
15567;SDS011;7885;42.596;23.044;2022-08-19T02:49:02;6.80;;;6.17;;
15567;SDS011;7885;42.596;23.044;2022-08-19T02:54:52;5.90;;;5.33;;
15567;SDS011;7885;42.596;23.044;2022-08-19T02:57:22;5.43;;;4.87;;
15567;SDS011;7885;42.596;23.044;2022-08-19T02:59:49;6.20;;;5.60;;
15567;SDS011;7885;42.596;23.044;2022-08-19T03:02:16;7.30;;;6.00;;
15567;SDS011;7885;42.596;23.044;2022-08-19T03:04:45;6.23;;;5.57;;
15567;SDS011;7885;42.596;23.044;2022-08-19T03:07:13;16.23;;;6.43;;
15567;SDS011;7885;42.596;23.044;2022-08-19T03:09:41;9.20;;;5.97;;
15567;SDS011;7885;42.596;23.044;2022-08-19T03:12:08;7.27;;;6.53;;
15567;SDS011;7885;42.596;23.044;2022-08-19T03:14:36;6.93;;;6.33;;
15567;SDS011;7885;42.596;23.044;2022-08-19T03:20:26;7.07;;;6.43;;
15567;SDS011;7885;42.596;23.044;2022-08-19T03:22:53;6.30;;;5.73;;
15567;SDS011;7885;42.596;23.044;2022-08-19T03:25:20;8.00;;;6.13;;
15567;SDS011;7885;42.596;23.044;2022-08-19T03:27:47;8.40;;;7.60;;
15567;SDS011;7885;42.596;23.044;2022-08-19T03:30:14;8.30;;;6.80;;
15567;SDS011;7885;42.596;23.044;2022-08-19T03:32:40;9.73;;;7.30;;
15567;SDS011;7885;42.596;23.044;2022-08-19T03:35:07;7.43;;;6.60;;
15567;SDS011;7885;42.596;23.044;2022-08-19T03:37:36;18.97;;;8.10;;
15567;SDS011;7885;42.596;23.044;2022-08-19T03:40:03;7.00;;;6.30;;
15567;SDS011;7885;42.596;23.044;2022-08-19T03:42:30;9.40;;;7.10;;
15567;SDS011;7885;42.596;23.044;2022-08-19T03:44:57;7.40;;;6.70;;
15567;SDS011;7885;42.596;23.044;2022-08-19T03:47:24;8.40;;;6.80;;
15567;SDS011;7885;42.596;23.044;2022-08-19T03:49:51;8.53;;;6.93;;
15567;SDS011;7885;42.596;23.044;2022-08-19T03:52:17;8.10;;;6.93;;
15567;SDS011;7885;42.596;23.044;2022-08-19T03:54:45;9.97;;;7.90;;
15567;SDS011;7885;42.596;23.044;2022-08-19T03:57:12;7.03;;;6.47;;
15567;SDS011;7885;42.596;23.044;2022-08-19T03:59:39;7.50;;;6.80;;
15567;SDS011;7885;42.596;23.044;2022-08-19T04:02:07;8.33;;;7.07;;
15567;SDS011;7885;42.596;23.044;2022-08-19T04:04:35;8.13;;;7.03;;
15567;SDS011;7885;42.596;23.044;2022-08-19T04:07:03;8.30;;;6.63;;
15567;SDS011;7885;42.596;23.044;2022-08-19T04:09:30;7.47;;;6.77;;
15567;SDS011;7885;42.596;23.044;2022-08-19T04:12:00;7.97;;;7.17;;
15567;SDS011;7885;42.596;23.044;2022-08-19T04:14:28;7.67;;;6.97;;
15567;SDS011;7885;42.596;23.044;2022-08-19T04:16:56;7.70;;;6.90;;
15567;SDS011;7885;42.596;23.044;2022-08-19T04:19:24;8.43;;;6.63;;
15567;SDS011;7885;42.596;23.044;2022-08-19T04:21:53;12.43;;;7.73;;
15567;SDS011;7885;42.596;23.044;2022-08-19T04:24:21;8.10;;;7.30;;
15567;SDS011;7885;42.596;23.044;2022-08-19T04:26:48;7.90;;;7.17;;
15567;SDS011;7885;42.596;23.044;2022-08-19T04:29:18;8.17;;;7.40;;
15567;SDS011;7885;42.596;23.044;2022-08-19T04:31:49;9.50;;;7.27;;
15567;SDS011;7885;42.596;23.044;2022-08-19T04:34:19;9.87;;;7.60;;
15567;SDS011;7885;42.596;23.044;2022-08-19T04:36:48;8.33;;;6.77;;
15567;SDS011;7885;42.596;23.044;2022-08-19T04:39:23;8.27;;;7.10;;
15567;SDS011;7885;42.596;23.044;2022-08-19T04:42:13;16.83;;;6.80;;
15567;SDS011;7885;42.596;23.044;2022-08-19T04:45:00;7.63;;;6.93;;
15567;SDS011;7885;42.596;23.044;2022-08-19T04:47:27;7.90;;;7.03;;
15567;SDS011;7885;42.596;23.044;2022-08-19T04:49:56;7.97;;;7.27;;
15567;SDS011;7885;42.596;23.044;2022-08-19T04:52:23;7.90;;;7.03;;
15567;SDS011;7885;42.596;23.044;2022-08-19T04:54:50;8.10;;;7.40;;
15567;SDS011;7885;42.596;23.044;2022-08-19T04:57:17;8.43;;;7.43;;
15567;SDS011;7885;42.596;23.044;2022-08-19T04:59:44;9.80;;;7.63;;
15567;SDS011;7885;42.596;23.044;2022-08-19T05:02:12;10.20;;;8.33;;
15567;SDS011;7885;42.596;23.044;2022-08-19T05:04:38;13.57;;;8.07;;
15567;SDS011;7885;42.596;23.044;2022-08-19T05:07:05;11.67;;;8.47;;
15567;SDS011;7885;42.596;23.044;2022-08-19T05:09:33;12.30;;;8.23;;
15567;SDS011;7885;42.596;23.044;2022-08-19T05:12:01;18.23;;;9.60;;
15567;SDS011;7885;42.596;23.044;2022-08-19T05:14:28;14.93;;;8.67;;
15567;SDS011;7885;42.596;23.044;2022-08-19T05:16:55;12.00;;;7.80;;
15567;SDS011;7885;42.596;23.044;2022-08-19T05:19:23;16.23;;;7.87;;
15567;SDS011;7885;42.596;23.044;2022-08-19T05:22:07;12.93;;;8.63;;
15567;SDS011;7885;42.596;23.044;2022-08-19T05:24:51;12.63;;;7.90;;
15567;SDS011;7885;42.596;23.044;2022-08-19T05:27:18;14.17;;;7.90;;
15567;SDS011;7885;42.596;23.044;2022-08-19T05:29:45;11.97;;;8.50;;
15567;SDS011;7885;42.596;23.044;2022-08-19T05:32:11;19.90;;;10.13;;
15567;SDS011;7885;42.596;23.044;2022-08-19T05:34:39;27.30;;;11.43;;
15567;SDS011;7885;42.596;23.044;2022-08-19T05:37:06;25.60;;;10.53;;
15567;SDS011;7885;42.596;23.044;2022-08-19T05:39:35;19.90;;;9.80;;
15567;SDS011;7885;42.596;23.044;2022-08-19T05:42:05;22.80;;;9.50;;
15567;SDS011;7885;42.596;23.044;2022-08-19T05:44:35;14.03;;;8.90;;
15567;SDS011;7885;42.596;23.044;2022-08-19T05:47:04;10.47;;;7.90;;
15567;SDS011;7885;42.596;23.044;2022-08-19T05:49:34;14.93;;;8.30;;
15567;SDS011;7885;42.596;23.044;2022-08-19T05:52:04;11.77;;;7.27;;
15567;SDS011;7885;42.596;23.044;2022-08-19T05:54:33;12.70;;;7.47;;
15567;SDS011;7885;42.596;23.044;2022-08-19T05:57:01;8.47;;;7.53;;
15567;SDS011;7885;42.596;23.044;2022-08-19T05:59:28;8.83;;;6.40;;
15567;SDS011;7885;42.596;23.044;2022-08-19T06:01:55;10.97;;;7.30;;
15567;SDS011;7885;42.596;23.044;2022-08-19T06:04:22;13.37;;;6.97;;
15567;SDS011;7885;42.596;23.044;2022-08-19T06:06:49;9.23;;;6.67;;
15567;SDS011;7885;42.596;23.044;2022-08-19T06:09:19;12.60;;;7.07;;
15567;SDS011;7885;42.596;23.044;2022-08-19T06:11:47;16.63;;;7.43;;
15567;SDS011;7885;42.596;23.044;2022-08-19T06:14:15;12.60;;;7.27;;
15567;SDS011;7885;42.596;23.044;2022-08-19T06:16:46;15.77;;;7.17;;
15567;SDS011;7885;42.596;23.044;2022-08-19T06:19:13;17.17;;;7.00;;
15567;SDS011;7885;42.596;23.044;2022-08-19T06:21:42;13.30;;;7.20;;
15567;SDS011;7885;42.596;23.044;2022-08-19T06:24:11;7.87;;;6.37;;
15567;SDS011;7885;42.596;23.044;2022-08-19T06:26:41;15.57;;;6.23;;
15567;SDS011;7885;42.596;23.044;2022-08-19T06:29:10;18.30;;;7.10;;
15567;SDS011;7885;42.596;23.044;2022-08-19T06:31:41;15.70;;;7.23;;
15567;SDS011;7885;42.596;23.044;2022-08-19T06:34:09;13.87;;;6.70;;
15567;SDS011;7885;42.596;23.044;2022-08-19T06:36:37;12.50;;;6.70;;
15567;SDS011;7885;42.596;23.044;2022-08-19T06:39:07;13.43;;;7.10;;
15567;SDS011;7885;42.596;23.044;2022-08-19T06:41:36;20.77;;;7.97;;
15567;SDS011;7885;42.596;23.044;2022-08-19T06:44:06;15.47;;;7.63;;
15567;SDS011;7885;42.596;23.044;2022-08-19T06:46:35;22.27;;;8.70;;
15567;SDS011;7885;42.596;23.044;2022-08-19T06:59:16;18.40;;;7.90;;
15567;SDS011;7885;42.596;23.044;2022-08-19T07:01:45;8.80;;;5.80;;
15567;SDS011;7885;42.596;23.044;2022-08-19T07:04:13;6.77;;;5.30;;
15567;SDS011;7885;42.596;23.044;2022-08-19T07:06:41;9.57;;;5.00;;
15567;SDS011;7885;42.596;23.044;2022-08-19T07:09:09;5.33;;;4.83;;
15567;SDS011;7885;42.596;23.044;2022-08-19T07:11:37;8.87;;;5.70;;
15567;SDS011;7885;42.596;23.044;2022-08-19T07:14:05;6.10;;;5.20;;
15567;SDS011;7885;42.596;23.044;2022-08-19T07:16:34;6.47;;;5.87;;
15567;SDS011;7885;42.596;23.044;2022-08-19T07:19:01;14.03;;;6.20;;
15567;SDS011;7885;42.596;23.044;2022-08-19T07:21:28;9.23;;;6.07;;
15567;SDS011;7885;42.596;23.044;2022-08-19T07:23:55;8.43;;;6.20;;
15567;SDS011;7885;42.596;23.044;2022-08-19T07:26:24;9.60;;;6.30;;
15567;SDS011;7885;42.596;23.044;2022-08-19T07:28:52;9.23;;;5.80;;
15567;SDS011;7885;42.596;23.044;2022-08-19T07:31:20;14.32;;;6.13;;
15567;SDS011;7885;42.596;23.044;2022-08-19T07:33:51;8.13;;;5.50;;
15567;SDS011;7885;42.596;23.044;2022-08-19T07:36:21;9.70;;;6.05;;
15567;SDS011;7885;42.596;23.044;2022-08-19T07:38:50;8.83;;;5.50;;
15567;SDS011;7885;42.596;23.044;2022-08-19T07:41:19;9.35;;;5.88;;
15567;SDS011;7885;42.596;23.044;2022-08-19T07:43:47;9.65;;;5.65;;
15567;SDS011;7885;42.596;23.044;2022-08-19T07:46:15;8.45;;;5.88;;
15567;SDS011;7885;42.596;23.044;2022-08-19T07:48:44;8.00;;;5.43;;
15567;SDS011;7885;42.596;23.044;2022-08-19T07:51:13;9.93;;;5.53;;
15567;SDS011;7885;42.596;23.044;2022-08-19T07:53:42;6.93;;;5.40;;
15567;SDS011;7885;42.596;23.044;2022-08-19T07:56:10;6.15;;;5.43;;
15567;SDS011;7885;42.596;23.044;2022-08-19T07:58:39;15.63;;;5.93;;
15567;SDS011;7885;42.596;23.044;2022-08-19T08:01:09;12.13;;;5.80;;
15567;SDS011;7885;42.596;23.044;2022-08-19T08:03:38;10.02;;;5.70;;
15567;SDS011;7885;42.596;23.044;2022-08-19T08:06:24;6.50;;;5.25;;
15567;SDS011;7885;42.596;23.044;2022-08-19T08:09:09;5.22;;;4.47;;
15567;SDS011;7885;42.596;23.044;2022-08-19T08:11:37;5.30;;;4.78;;
15567;SDS011;7885;42.596;23.044;2022-08-19T08:14:04;6.90;;;4.30;;
15567;SDS011;7885;42.596;23.044;2022-08-19T08:16:33;5.90;;;4.40;;
15567;SDS011;7885;42.596;23.044;2022-08-19T08:19:00;4.70;;;4.40;;
15567;SDS011;7885;42.596;23.044;2022-08-19T08:21:28;4.95;;;4.32;;
15567;SDS011;7885;42.596;23.044;2022-08-19T08:23:55;4.40;;;4.10;;
15567;SDS011;7885;42.596;23.044;2022-08-19T08:26:22;4.95;;;4.38;;
15567;SDS011;7885;42.596;23.044;2022-08-19T08:28:50;4.28;;;3.88;;
15567;SDS011;7885;42.596;23.044;2022-08-19T08:31:17;5.18;;;4.60;;
15567;SDS011;7885;42.596;23.044;2022-08-19T08:33:44;4.90;;;4.40;;
15567;SDS011;7885;42.596;23.044;2022-08-19T08:36:12;4.45;;;4.05;;
15567;SDS011;7885;42.596;23.044;2022-08-19T08:38:41;4.60;;;4.30;;
15567;SDS011;7885;42.596;23.044;2022-08-19T08:47:53;7.78;;;4.15;;
15567;SDS011;7885;42.596;23.044;2022-08-19T08:50:28;4.93;;;4.20;;
15567;SDS011;7885;42.596;23.044;2022-08-19T08:53:01;5.00;;;4.60;;
15567;SDS011;7885;42.596;23.044;2022-08-19T08:55:31;6.72;;;3.95;;
15567;SDS011;7885;42.596;23.044;2022-08-19T08:58:01;5.70;;;4.07;;
15567;SDS011;7885;42.596;23.044;2022-08-19T09:00:32;4.45;;;4.05;;
15567;SDS011;7885;42.596;23.044;2022-08-19T09:03:00;4.80;;;4.35;;
15567;SDS011;7885;42.596;23.044;2022-08-19T09:05:34;4.97;;;4.28;;
15567;SDS011;7885;42.596;23.044;2022-08-19T09:08:08;4.75;;;4.22;;
15567;SDS011;7885;42.596;23.044;2022-08-19T09:10:45;5.45;;;3.92;;
15567;SDS011;7885;42.596;23.044;2022-08-19T09:13:18;6.57;;;3.78;;
15567;SDS011;7885;42.596;23.044;2022-08-19T09:15:54;5.40;;;4.07;;
15567;SDS011;7885;42.596;23.044;2022-08-19T09:18:26;6.93;;;4.30;;
15567;SDS011;7885;42.596;23.044;2022-08-19T09:21:06;3.88;;;3.58;;
15567;SDS011;7885;42.596;23.044;2022-08-19T09:23:33;4.32;;;3.90;;
15567;SDS011;7885;42.596;23.044;2022-08-19T09:26:04;5.10;;;4.18;;
15567;SDS011;7885;42.596;23.044;2022-08-19T09:28:33;6.47;;;4.15;;
15567;SDS011;7885;42.596;23.044;2022-08-19T09:31:02;4.93;;;4.10;;
15567;SDS011;7885;42.596;23.044;2022-08-19T09:33:29;6.18;;;4.13;;
15567;SDS011;7885;42.596;23.044;2022-08-19T09:36:04;4.57;;;4.07;;
15567;SDS011;7885;42.596;23.044;2022-08-19T09:38:32;5.70;;;3.80;;
15567;SDS011;7885;42.596;23.044;2022-08-19T09:41:04;4.03;;;3.53;;
15567;SDS011;7885;42.596;23.044;2022-08-19T09:43:33;4.80;;;4.28;;
15567;SDS011;7885;42.596;23.044;2022-08-19T09:46:01;4.40;;;4.00;;
15567;SDS011;7885;42.596;23.044;2022-08-19T09:48:30;4.00;;;3.63;;
15567;SDS011;7885;42.596;23.044;2022-08-19T09:51:01;4.72;;;3.67;;
15567;SDS011;7885;42.596;23.044;2022-08-19T09:53:30;4.70;;;3.80;;
15567;SDS011;7885;42.596;23.044;2022-08-19T09:55:56;3.83;;;3.30;;
15567;SDS011;7885;42.596;23.044;2022-08-19T09:58:24;3.67;;;3.38;;
15567;SDS011;7885;42.596;23.044;2022-08-19T10:00:53;4.80;;;3.90;;
15567;SDS011;7885;42.596;23.044;2022-08-19T10:03:19;3.40;;;3.10;;
15567;SDS011;7885;42.596;23.044;2022-08-19T10:05:46;4.85;;;3.30;;
15567;SDS011;7885;42.596;23.044;2022-08-19T10:08:17;7.63;;;3.47;;
15567;SDS011;7885;42.596;23.044;2022-08-19T10:10:45;3.35;;;3.15;;
15567;SDS011;7885;42.596;23.044;2022-08-19T10:13:14;4.45;;;3.55;;
15567;SDS011;7885;42.596;23.044;2022-08-19T10:15:45;4.22;;;3.50;;
15567;SDS011;7885;42.596;23.044;2022-08-19T10:18:11;4.13;;;3.70;;
15567;SDS011;7885;42.596;23.044;2022-08-19T10:20:38;4.45;;;3.38;;
15567;SDS011;7885;42.596;23.044;2022-08-19T10:23:06;3.30;;;3.10;;
15567;SDS011;7885;42.596;23.044;2022-08-19T10:25:33;4.22;;;3.83;;
15567;SDS011;7885;42.596;23.044;2022-08-19T10:28:00;4.13;;;3.40;;
15567;SDS011;7885;42.596;23.044;2022-08-19T10:30:27;5.25;;;3.63;;
15567;SDS011;7885;42.596;23.044;2022-08-19T10:32:55;7.05;;;3.58;;
15567;SDS011;7885;42.596;23.044;2022-08-19T10:35:22;4.78;;;3.42;;
15567;SDS011;7885;42.596;23.044;2022-08-19T10:37:49;7.18;;;4.32;;
15567;SDS011;7885;42.596;23.044;2022-08-19T10:43:38;4.40;;;4.00;;
15567;SDS011;7885;42.596;23.044;2022-08-19T10:46:05;5.57;;;3.70;;
15567;SDS011;7885;42.596;23.044;2022-08-19T10:48:34;5.22;;;3.70;;
15567;SDS011;7885;42.596;23.044;2022-08-19T10:51:02;4.63;;;4.00;;
15567;SDS011;7885;42.596;23.044;2022-08-19T10:53:47;7.35;;;3.60;;
15567;SDS011;7885;42.596;23.044;2022-08-19T10:56:14;7.00;;;4.10;;
15567;SDS011;7885;42.596;23.044;2022-08-19T10:58:58;6.93;;;3.97;;
15567;SDS011;7885;42.596;23.044;2022-08-19T11:01:28;4.28;;;3.88;;
15567;SDS011;7885;42.596;23.044;2022-08-19T11:03:59;6.45;;;4.15;;
15567;SDS011;7885;42.596;23.044;2022-08-19T11:06:27;4.93;;;3.85;;
15567;SDS011;7885;42.596;23.044;2022-08-19T11:08:54;5.28;;;3.75;;
15567;SDS011;7885;42.596;23.044;2022-08-19T11:11:21;5.43;;;3.58;;
15567;SDS011;7885;42.596;23.044;2022-08-19T11:13:49;5.00;;;4.13;;
15567;SDS011;7885;42.596;23.044;2022-08-19T11:16:17;37.42;;;14.73;;
15567;SDS011;7885;42.596;23.044;2022-08-19T11:18:47;4.50;;;4.10;;
15567;SDS011;7885;42.596;23.044;2022-08-19T11:21:18;6.65;;;4.35;;
15567;SDS011;7885;42.596;23.044;2022-08-19T11:23:47;6.43;;;4.20;;
15567;SDS011;7885;42.596;23.044;2022-08-19T11:26:17;4.55;;;4.15;;
15567;SDS011;7885;42.596;23.044;2022-08-19T11:28:45;6.55;;;4.00;;
15567;SDS011;7885;42.596;23.044;2022-08-19T11:31:12;5.20;;;4.38;;
15567;SDS011;7885;42.596;23.044;2022-08-19T11:33:42;6.55;;;5.05;;
15567;SDS011;7885;42.596;23.044;2022-08-19T11:36:10;7.63;;;4.45;;
15567;SDS011;7885;42.596;23.044;2022-08-19T11:38:38;5.93;;;4.43;;
15567;SDS011;7885;42.596;23.044;2022-08-19T11:41:07;4.95;;;4.45;;
15567;SDS011;7885;42.596;23.044;2022-08-19T11:43:34;7.18;;;4.00;;
15567;SDS011;7885;42.596;23.044;2022-08-19T11:46:03;6.72;;;4.40;;
15567;SDS011;7885;42.596;23.044;2022-08-19T11:48:32;5.75;;;4.20;;
15567;SDS011;7885;42.596;23.044;2022-08-19T11:51:03;6.93;;;4.18;;
15567;SDS011;7885;42.596;23.044;2022-08-19T11:53:32;8.95;;;5.43;;
15567;SDS011;7885;42.596;23.044;2022-08-19T11:59:22;5.13;;;4.60;;
15567;SDS011;7885;42.596;23.044;2022-08-19T12:01:51;6.18;;;4.03;;
15567;SDS011;7885;42.596;23.044;2022-08-19T12:04:18;8.27;;;4.40;;
15567;SDS011;7885;42.596;23.044;2022-08-19T12:06:45;6.82;;;4.43;;
15567;SDS011;7885;42.596;23.044;2022-08-19T12:09:11;7.57;;;4.82;;
15567;SDS011;7885;42.596;23.044;2022-08-19T12:11:39;8.10;;;4.40;;
15567;SDS011;7885;42.596;23.044;2022-08-19T12:14:08;6.13;;;4.43;;
15567;SDS011;7885;42.596;23.044;2022-08-19T12:16:38;5.97;;;4.50;;
15567;SDS011;7885;42.596;23.044;2022-08-19T12:19:05;8.15;;;5.00;;
15567;SDS011;7885;42.596;23.044;2022-08-19T12:21:33;8.27;;;4.53;;
15567;SDS011;7885;42.596;23.044;2022-08-19T12:24:02;8.90;;;4.45;;
15567;SDS011;7885;42.596;23.044;2022-08-19T12:26:30;7.63;;;4.28;;
15567;SDS011;7885;42.596;23.044;2022-08-19T12:28:57;6.50;;;4.68;;
15567;SDS011;7885;42.596;23.044;2022-08-19T12:31:25;7.47;;;4.07;;
15567;SDS011;7885;42.596;23.044;2022-08-19T12:33:54;6.55;;;4.45;;
15567;SDS011;7885;42.596;23.044;2022-08-19T12:36:21;5.50;;;4.25;;
15567;SDS011;7885;42.596;23.044;2022-08-19T12:38:49;6.03;;;4.55;;
15567;SDS011;7885;42.596;23.044;2022-08-19T12:41:16;5.45;;;4.18;;
15567;SDS011;7885;42.596;23.044;2022-08-19T12:43:43;6.18;;;4.20;;
15567;SDS011;7885;42.596;23.044;2022-08-19T12:46:11;5.18;;;4.00;;
15567;SDS011;7885;42.596;23.044;2022-08-19T12:48:39;7.47;;;4.15;;
15567;SDS011;7885;42.596;23.044;2022-08-19T12:51:10;4.88;;;4.20;;
15567;SDS011;7885;42.596;23.044;2022-08-19T12:53:38;15.63;;;5.90;;
15567;SDS011;7885;42.596;23.044;2022-08-19T12:56:05;14.63;;;5.47;;
15567;SDS011;7885;42.596;23.044;2022-08-19T12:58:32;8.25;;;4.45;;
15567;SDS011;7885;42.596;23.044;2022-08-19T13:01:05;6.60;;;4.35;;
15567;SDS011;7885;42.596;23.044;2022-08-19T13:03:32;5.72;;;4.22;;
15567;SDS011;7885;42.596;23.044;2022-08-19T13:05:59;7.65;;;4.35;;
15567;SDS011;7885;42.596;23.044;2022-08-19T13:08:27;6.20;;;4.40;;
15567;SDS011;7885;42.596;23.044;2022-08-19T13:10:54;7.60;;;4.72;;
15567;SDS011;7885;42.596;23.044;2022-08-19T13:13:21;5.65;;;4.35;;
15567;SDS011;7885;42.596;23.044;2022-08-19T13:15:48;8.10;;;4.43;;
15567;SDS011;7885;42.596;23.044;2022-08-19T13:18:14;6.85;;;4.32;;
15567;SDS011;7885;42.596;23.044;2022-08-19T13:20:41;5.05;;;3.90;;
15567;SDS011;7885;42.596;23.044;2022-08-19T13:23:09;5.47;;;4.10;;
15567;SDS011;7885;42.596;23.044;2022-08-19T13:25:37;6.65;;;4.20;;
15567;SDS011;7885;42.596;23.044;2022-08-19T13:28:04;6.25;;;4.40;;
15567;SDS011;7885;42.596;23.044;2022-08-19T13:30:31;7.28;;;4.40;;
15567;SDS011;7885;42.596;23.044;2022-08-19T13:33:16;8.15;;;4.53;;
15567;SDS011;7885;42.596;23.044;2022-08-19T13:35:45;8.02;;;4.45;;
15567;SDS011;7885;42.596;23.044;2022-08-19T13:38:14;10.65;;;4.53;;
15567;SDS011;7885;42.596;23.044;2022-08-19T13:40:43;10.18;;;4.22;;
15567;SDS011;7885;42.596;23.044;2022-08-19T13:43:11;85.10;;;16.65;;
15567;SDS011;7885;42.596;23.044;2022-08-19T13:45:38;29.05;;;7.75;;
15567;SDS011;7885;42.596;23.044;2022-08-19T13:48:06;10.38;;;5.18;;
15567;SDS011;7885;42.596;23.044;2022-08-19T13:50:34;6.40;;;4.53;;
15567;SDS011;7885;42.596;23.044;2022-08-19T13:53:05;7.68;;;4.38;;
15567;SDS011;7885;42.596;23.044;2022-08-19T14:02:22;7.18;;;4.28;;
15567;SDS011;7885;42.596;23.044;2022-08-19T14:04:49;4.80;;;4.32;;
15567;SDS011;7885;42.596;23.044;2022-08-19T14:07:16;10.13;;;4.60;;
15567;SDS011;7885;42.596;23.044;2022-08-19T14:09:43;5.50;;;4.10;;
15567;SDS011;7885;42.596;23.044;2022-08-19T14:12:09;9.48;;;4.43;;
15567;SDS011;7885;42.596;23.044;2022-08-19T14:14:36;7.57;;;4.40;;
15567;SDS011;7885;42.596;23.044;2022-08-19T14:17:05;7.07;;;4.32;;
15567;SDS011;7885;42.596;23.044;2022-08-19T14:19:33;7.40;;;4.80;;
15567;SDS011;7885;42.596;23.044;2022-08-19T14:22:00;8.00;;;4.63;;
15567;SDS011;7885;42.596;23.044;2022-08-19T14:24:27;5.00;;;4.35;;
15567;SDS011;7885;42.596;23.044;2022-08-19T14:26:54;9.35;;;4.60;;
15567;SDS011;7885;42.596;23.044;2022-08-19T14:29:20;7.43;;;4.13;;
15567;SDS011;7885;42.596;23.044;2022-08-19T14:31:47;7.57;;;4.68;;
15567;SDS011;7885;42.596;23.044;2022-08-19T14:34:14;5.70;;;4.13;;
15567;SDS011;7885;42.596;23.044;2022-08-19T14:36:42;6.40;;;4.30;;
15567;SDS011;7885;42.596;23.044;2022-08-19T14:39:10;7.93;;;4.60;;
15567;SDS011;7885;42.596;23.044;2022-08-19T14:41:39;6.82;;;4.68;;
15567;SDS011;7885;42.596;23.044;2022-08-19T14:44:07;6.28;;;4.15;;
15567;SDS011;7885;42.596;23.044;2022-08-19T14:46:37;6.15;;;4.40;;
15567;SDS011;7885;42.596;23.044;2022-08-19T14:49:05;7.80;;;4.55;;
15567;SDS011;7885;42.596;23.044;2022-08-19T14:51:33;14.65;;;4.65;;
15567;SDS011;7885;42.596;23.044;2022-08-19T14:54:01;6.97;;;4.35;;
15567;SDS011;7885;42.596;23.044;2022-08-19T14:56:28;7.95;;;4.60;;
15567;SDS011;7885;42.596;23.044;2022-08-19T14:58:56;5.57;;;4.53;;
15567;SDS011;7885;42.596;23.044;2022-08-19T15:01:26;7.22;;;4.47;;
15567;SDS011;7885;42.596;23.044;2022-08-19T15:03:53;5.95;;;4.38;;
15567;SDS011;7885;42.596;23.044;2022-08-19T15:06:21;9.35;;;4.43;;
15567;SDS011;7885;42.596;23.044;2022-08-19T15:08:48;7.57;;;4.05;;
15567;SDS011;7885;42.596;23.044;2022-08-19T15:11:18;7.07;;;4.57;;
15567;SDS011;7885;42.596;23.044;2022-08-19T15:13:47;6.15;;;4.43;;
15567;SDS011;7885;42.596;23.044;2022-08-19T15:16:15;6.28;;;4.35;;
15567;SDS011;7885;42.596;23.044;2022-08-19T15:18:42;8.23;;;4.82;;
15567;SDS011;7885;42.596;23.044;2022-08-19T15:21:10;7.88;;;4.40;;
15567;SDS011;7885;42.596;23.044;2022-08-19T15:23:38;6.88;;;4.90;;
15567;SDS011;7885;42.596;23.044;2022-08-19T15:26:05;6.47;;;3.95;;
15567;SDS011;7885;42.596;23.044;2022-08-19T15:28:35;5.93;;;4.10;;
15567;SDS011;7885;42.596;23.044;2022-08-19T15:31:02;6.80;;;4.22;;
15567;SDS011;7885;42.596;23.044;2022-08-19T15:33:30;8.25;;;4.20;;